AirNav   Air Wisconsin pilot careers
 
 1058 users online  

4OR7 Lusardi Field Airport
Salem, Oregon, USA

GOING TO SALEM?


FAA INFORMATION EFFECTIVE 08 NOVEMBER 2018

Location

FAA Identifier: 4OR7
Lat/Long: 44-59-07.4320N / 122-56-46.3400W
44-59.123867N / 122-56.772333W
44.9853978 / -122.9462056
(estimated)
Elevation: 205 ft. / 62 m (estimated)
Variation: 19E (1985)
From city: 7 miles NE of SALEM, OR
Time zone: UTC -8 (UTC -7 during Daylight Saving Time)
Zip code: 97305

Airport Operations

Airport use: Private use. Permission required prior to landing
Activation date: 03/1976
Control tower: no
ARTCC: SEATTLE CENTER
FSS: MC MINNVILLE FLIGHT SERVICE STATION
Attendance: UNATNDD
Wind indicator: yes
Segmented circle: no
Lights: FOR RY LIGHTS CALL 503-931-0404.

Airport Communications

WX ASOS at SLE (5 nm SW): 124.55 (503-371-1062)
WX ASOS at MMV (15 nm NW): 135.675 (503-434-9153)
WX ASOS at UAO (17 nm NE): PHONE 503-678-3011

Nearby radio navigation aids

VOR radial/distance  VOR name  Freq  Var
UBGr155/22.1NEWBERG VOR/DME117.4021E
CVOr009/32.7CORVALLIS VOR/DME115.4018E

 
NDB name  Hdg/Dist  Freq  Var  ID
TURNO344/8.326617ESL ... .-..
LEWISBURG017/26.222515ELWG .-.. .-- --.
BANKS158/38.935616EPND .--. -. -..

Airport Services

Fuel available: 80

Runway Information

Runway 17/35

Dimensions: 2200 x 60 ft. / 671 x 18 m
Surface: turf
Runway edge lights: low intensity
RUNWAY 17  RUNWAY 35
Traffic pattern: leftleft
Obstructions: trees, lighted, 600 ft. from runwaypline, lighted, 800 ft. from runway

Airport Ownership and Management from official FAA records

Ownership: Privately-owned
Owner: ROBERT LUSARDI
5605 IBEX ST NE
SALEM, OR 97305
Phone 503-399-7123
Manager: ROBERT LUSARDI
5605 IBEX ST NE
SALEM, OR 97305
Phone 503-319-2370

Airport Operational Statistics

Aircraft based on the field: 8
Single engine airplanes: 8
    

Additional Remarks

RY 35 PREFERRED CALM WIND RY.

Instrument Procedures

There are no published instrument procedures at 4OR7.

Some nearby airports with instrument procedures:

KSLE - McNary Field Airport (5 nm SW)
KMMV - Mc Minnville Municipal Airport (15 nm NW)
KUAO - Aurora State Airport (17 nm NE)
S12 - Albany Municipal Airport (21 nm S)
KCVO - Corvallis Municipal Airport (33 nm SW)
 
Loc | Ops | Rwys | IFR | FBO | Links
Com | Nav | Svcs | Stats | Notes


 
Area around 4OR7 (Lusardi Field Airport)
 
Road maps at: MapQuest Bing Google
 
Aerial photo
WARNING: Photo may not be current or correct
Aerial photo of 4OR7 (Lusardi Field Airport)
Do you have a better or more recent aerial photo of Lusardi Field Airport that you would like to share? If so, please send us your photo.

 
Sectional chart

 
Airport distance calculator
Flying to Lusardi Field Airport? Find the distance to fly.

From to 4OR7

Sunrise and sunset
Times for 15-Nov-2018
 Local
(UTC-8)
 Zulu
(UTC)
Morning civil twilight06:3914:39
Sunrise07:1115:11
Sunset16:4200:42
Evening civil twilight17:1401:14

Current date and time
Zulu (UTC)  15-Nov-2018 13:58:27
Local (UTC-8)  15-Nov-2018 05:58:27
 
METAR
KSLE 
6nm SW 
151330Z AUTO 02004KT 3SM BR BKN006 OVC012 08/07 A3035 RMK AO2 T00830067
KMMV 
15nm NW 
151353Z AUTO 35003KT 10SM OVC017 08/08 A3036 RMK AO2 SLP279 T00830078
KUAO 
18nm NE 
151353Z AUTO 12003KT 3/4SM BR BKN006 06/06 A3037 RMK AO2 SLP284 T00610056
TAF
KSLE 
6nm SW 
151140Z 1512/1612 33003KT 4SM BR SCT009 OVC018 TEMPO 1512/1516 BKN009 FM152000 35003KT 5SM BR SCT008 OVC020 FM152300 01005KT P6SM SCT025 FM160400 VRB03KT 3SM BR SCT007 BKN012
KUAO 
18nm NE 
151140Z 1512/1612 03005KT 4SM BR SCT006 BKN025 TEMPO 1514/1517 BKN006 FM151800 VRB02KT 4SM BR SCT010 BKN020 FM152200 VRB03KT P6SM SCT250 FM160400 VRB03KT 3SM BR SCT007 BKN012
NOTAMs
Click for the latest NOTAMs
NOTAMs are issued by the DoD/FAA and will open in a separate window not controlled by AirNav.

 

 
 

Would you like to see your business listed on this page?

 If your business provides an interesting product or service to pilots, flight crews, aircraft, or users of the Lusardi Field Airport, you should consider listing it here.  To start the listing process, click on the button below
 
Add a business
 

Other Pages about Lusardi Field Airport

Update a link
 
Copyright © AirNav, LLC. All rights reserved. Privacy Policy  Contact